Time;durP1;ratioP1;P1;durP2;ratioP2;P2;SDS_P1;SDS_P2;PMS_P1;PMS_P2;Temp;Humidity;BMP_temperature;BMP_pressure;BME280_temperature;BME280_humidity;BME280_pressure;Samples;Min_cycle;Max_cycle;Signal;HPM_P1;HPM_P2
2022/06/09 00:01:02;;;;;;;0.10;0.10;;;14.20;99.90;;;;;;4995185;28;20197;-90
2022/06/09 00:03:37;;;;;;;0.20;0.20;;;14.20;99.90;;;;;;4979172;28;20042;-90
2022/06/09 00:06:06;;;;;;;0.03;0.03;;;14.20;99.90;;;;;;4998046;28;20046;-90
2022/06/09 00:08:32;;;;;;;0.10;0.10;;;14.20;99.90;;;;;;4981585;28;20120;-90
2022/06/09 00:11:01;;;;;;;0.20;0.20;;;14.10;99.90;;;;;;4978706;28;20049;-90
2022/06/09 00:13:28;;;;;;;0.25;0.25;;;14.10;99.90;;;;;;4994717;28;20042;-90
2022/06/09 00:15:54;;;;;;;0.20;0.20;;;14.10;99.90;;;;;;4996600;28;20033;-90
2022/06/09 00:18:21;;;;;;;0.68;0.68;;;14.10;99.90;;;;;;4978986;28;20045;-90
2022/06/09 00:20:47;;;;;;;0.10;0.10;;;14.10;99.90;;;;;;5011070;28;20130;-78
2022/06/09 00:23:15;;;;;;;0.52;0.40;;;14.10;99.90;;;;;;4984052;28;20117;-78
2022/06/09 00:25:40;;;;;;;0.00;0.00;;;14.00;99.90;;;;;;4994490;28;20109;-78
2022/06/09 00:28:06;;;;;;;0.35;0.30;;;14.00;99.90;;;;;;5009612;28;20077;-78
2022/06/09 00:30:32;;;;;;;0.25;0.22;;;14.00;99.90;;;;;;4994256;28;20046;-78
2022/06/09 00:32:58;;;;;;;0.10;0.10;;;14.00;99.90;;;;;;4993489;28;20038;-78
2022/06/09 00:35:23;;;;;;;0.85;0.40;;;13.90;99.90;;;;;;4976566;28;20121;-78
2022/06/09 00:37:49;;;;;;;0.00;0.00;;;14.00;99.90;;;;;;4994286;28;20124;-90
2022/06/09 00:40:15;;;;;;;0.10;0.10;;;13.90;99.90;;;;;;5010383;28;20051;-91
2022/06/09 00:42:41;;;;;;;0.10;0.10;;;13.90;99.90;;;;;;5010366;28;20085;-90
2022/06/09 00:45:28;;;;;;;0.13;0.13;;;13.90;99.90;;;;;;4994061;28;20120;-90
2022/06/09 00:48:08;;;;;;;0.10;0.10;;;13.90;99.90;;;;;;4993824;28;20392;-90
2022/06/09 00:50:37;;;;;;;0.43;0.43;;;13.90;99.90;;;;;;4993847;28;20038;-90
2022/06/09 00:53:07;;;;;;;0.10;0.10;;;13.80;99.90;;;;;;4993814;28;20042;-90
2022/06/09 00:55:34;;;;;;;0.20;0.17;;;13.80;99.90;;;;;;4993739;28;20077;-90
2022/06/09 00:58:06;;;;;;;0.52;0.52;;;13.80;99.90;;;;;;4993431;28;20543;-90
2022/06/09 01:00:40;;;;;;;0.10;0.10;;;13.70;99.90;;;;;;4993621;28;20085;-90
2022/06/09 01:03:07;;;;;;;0.52;0.50;;;13.70;99.90;;;;;;4993938;28;20444;-90
2022/06/09 01:05:36;;;;;;;0.60;0.60;;;13.70;99.90;;;;;;4977509;28;20108;-90
2022/06/09 01:08:04;;;;;;;0.30;0.30;;;13.60;99.90;;;;;;4977266;28;20528;-90
2022/06/09 01:10:30;;;;;;;0.10;0.10;;;13.70;99.90;;;;;;4976375;28;20042;-81
2022/06/09 01:12:57;;;;;;;0.90;0.47;;;13.60;99.90;;;;;;4993468;28;20429;-81
2022/06/09 01:15:51;;;;;;;0.38;0.32;;;13.70;99.90;;;;;;4986712;28;20042;-81
2022/06/09 01:18:38;;;;;;;0.88;0.88;;;13.70;99.90;;;;;;4950284;28;20054;-81
2022/06/09 01:21:09;;;;;;;;;;;13.60;99.90;;;;;;4993263;28;20240;-81
2022/06/09 01:23:57;;;;;;;0.10;0.10;;;13.50;99.90;;;;;;4991811;28;19926;-81
2022/06/09 01:26:59;;;;;;;0.13;0.13;;;13.50;99.90;;;;;;4992603;28;20086;-81
2022/06/09 01:29:40;;;;;;;0.20;0.20;;;13.40;99.90;;;;;;4992668;28;20046;-81
2022/06/09 01:32:31;;;;;;;0.08;0.08;;;13.30;99.90;;;;;;4991672;28;20042;-81
2022/06/09 01:35:06;;;;;;;0.20;0.20;;;13.20;99.90;;;;;;4991937;28;20037;-81
2022/06/09 01:37:37;;;;;;;0.73;0.73;;;13.20;99.90;;;;;;4984520;28;20124;-81
2022/06/09 01:40:06;;;;;;;0.10;0.10;;;13.20;99.90;;;;;;4976003;28;20413;-81
2022/06/09 01:42:46;;;;;;;0.20;0.20;;;13.20;99.90;;;;;;4992778;28;20073;-82
2022/06/09 01:45:15;;;;;;;0.10;0.10;;;13.20;99.90;;;;;;4990944;28;20153;-82
2022/06/09 01:48:02;;;;;;;0.28;0.28;;;13.10;99.90;;;;;;4992376;28;20053;-82
2022/06/09 01:50:45;;;;;;;0.30;0.30;;;13.00;99.90;;;;;;4992617;28;20045;-82
2022/06/09 01:53:24;;;;;;;0.00;0.00;;;13.00;99.90;;;;;;4975232;28;20482;-82
2022/06/09 01:55:56;;;;;;;0.10;0.10;;;12.90;99.90;;;;;;4974171;28;20046;-82
2022/06/09 01:58:26;;;;;;;0.10;0.10;;;12.80;99.90;;;;;;4980555;28;20042;-83
2022/06/09 02:00:54;;;;;;;0.20;0.20;;;12.80;99.90;;;;;;4993336;28;20039;-89
2022/06/09 02:03:28;;;;;;;0.20;0.13;;;12.90;99.90;;;;;;4992781;28;20052;-90
2022/06/09 02:05:58;;;;;;;0.20;0.20;;;12.90;99.90;;;;;;4993023;28;20061;-90
2022/06/09 02:08:25;;;;;;;0.00;0.00;;;13.00;99.90;;;;;;4993424;28;20426;-90
2022/06/09 02:10:57;;;;;;;0.20;0.20;;;13.00;99.90;;;;;;4992805;28;20404;-89
2022/06/09 02:13:30;;;;;;;0.00;0.00;;;12.90;99.90;;;;;;4992746;28;20153;-89
2022/06/09 02:16:01;;;;;;;0.38;0.20;;;12.90;99.90;;;;;;4992790;28;20045;-82
2022/06/09 02:18:31;;;;;;;0.05;0.05;;;12.80;99.90;;;;;;4986170;28;20489;-81
2022/06/09 02:21:04;;;;;;;0.10;0.10;;;12.80;99.90;;;;;;4991468;28;20108;-81
2022/06/09 02:23:30;;;;;;;0.40;0.40;;;12.80;99.90;;;;;;4982653;28;20078;-81
2022/06/09 02:25:56;;;;;;;0.30;0.30;;;12.80;99.90;;;;;;4975598;28;20038;-81
2022/06/09 02:28:22;;;;;;;0.88;0.85;;;12.80;99.90;;;;;;4992030;28;20113;-81
2022/06/09 02:30:48;;;;;;;0.25;0.25;;;12.80;99.90;;;;;;4992748;28;20089;-81
2022/06/09 02:33:14;;;;;;;0.20;0.20;;;12.90;99.90;;;;;;4972723;28;20038;-78
2022/06/09 02:35:41;;;;;;;1.10;0.82;;;12.90;99.90;;;;;;4985474;28;20385;-78
2022/06/09 02:38:08;;;;;;;1.17;0.40;;;12.90;99.90;;;;;;4956984;28;20047;-78
2022/06/09 02:40:34;;;;;;;0.10;0.10;;;13.00;99.90;;;;;;4977655;28;20070;-78
2022/06/09 02:43:00;;;;;;;0.38;0.38;;;12.90;99.90;;;;;;4990849;28;20085;-78
2022/06/09 02:45:27;;;;;;;0.00;0.00;;;12.90;99.90;;;;;;4980113;28;20042;-78
2022/06/09 02:47:53;;;;;;;0.10;0.10;;;12.90;99.90;;;;;;4995911;28;20432;-78
2022/06/09 02:50:19;;;;;;;0.10;0.10;;;13.00;99.90;;;;;;4995923;28;20124;-81
2022/06/09 02:52:45;;;;;;;0.00;0.00;;;13.00;99.90;;;;;;4994133;28;20117;-81
2022/06/09 02:55:12;;;;;;;0.05;0.05;;;13.00;99.90;;;;;;4987784;28;20053;-81
2022/06/09 02:57:38;;;;;;;0.00;0.00;;;13.00;99.90;;;;;;4977249;28;20552;-81
2022/06/09 03:00:07;;;;;;;0.00;0.00;;;13.00;99.90;;;;;;4963474;28;20050;-81
2022/06/09 03:02:33;;;;;;;0.13;0.13;;;13.00;99.90;;;;;;4963516;28;20073;-81
2022/06/09 03:05:02;;;;;;;0.00;0.00;;;13.00;99.90;;;;;;4993345;28;20101;-81
2022/06/09 03:07:28;;;;;;;1.20;0.25;;;13.00;99.90;;;;;;4977133;28;20042;-81
2022/06/09 03:09:54;;;;;;;0.00;0.00;;;13.00;99.90;;;;;;4996052;28;20376;-81
2022/06/09 03:12:21;;;;;;;0.20;0.20;;;13.00;99.90;;;;;;4977519;28;20070;-81
2022/06/09 03:14:47;;;;;;;0.25;0.20;;;13.10;99.90;;;;;;4992903;28;20114;-81
2022/06/09 03:17:13;;;;;;;0.00;0.00;;;13.10;99.90;;;;;;4996101;28;20391;-81
2022/06/09 03:19:39;;;;;;;0.43;0.43;;;13.10;99.90;;;;;;4979106;28;20054;-81
2022/06/09 03:22:05;;;;;;;0.10;0.10;;;13.20;99.90;;;;;;4975722;28;20137;-81
2022/06/09 03:24:31;;;;;;;0.47;0.47;;;13.20;99.90;;;;;;4994710;28;20129;-81
2022/06/09 03:26:56;;;;;;;0.00;0.00;;;13.20;99.90;;;;;;4995285;28;20042;-81
2022/06/09 03:29:23;;;;;;;0.63;0.22;;;13.20;99.90;;;;;;4994789;28;20501;-81
2022/06/09 03:31:49;;;;;;;0.30;0.30;;;13.20;99.90;;;;;;4992358;28;20124;-81
2022/06/09 03:34:15;;;;;;;0.17;0.15;;;13.20;99.90;;;;;;4988336;28;20388;-81
2022/06/09 03:36:43;;;;;;;0.10;0.10;;;13.20;99.90;;;;;;4992574;28;20177;-81
2022/06/09 03:39:10;;;;;;;0.10;0.10;;;13.20;99.90;;;;;;4978943;28;20042;-82
2022/06/09 03:41:36;;;;;;;0.00;0.00;;;13.30;99.90;;;;;;4995237;28;20046;-82
2022/06/09 03:44:01;;;;;;;0.10;0.10;;;13.30;99.90;;;;;;4993009;28;20391;-82
2022/06/09 03:46:27;;;;;;;0.20;0.20;;;13.20;99.90;;;;;;4979502;28;20039;-82
2022/06/09 03:48:53;;;;;;;0.08;0.08;;;13.30;99.90;;;;;;4992724;28;20051;-82
2022/06/09 03:51:19;;;;;;;0.20;0.20;;;13.30;99.90;;;;;;4978430;28;20492;-82
2022/06/09 03:53:45;;;;;;;0.20;0.20;;;13.30;99.90;;;;;;4961468;28;20034;-82
2022/06/09 03:56:19;;;;;;;0.10;0.10;;;13.30;99.90;;;;;;4979239;28;20049;-82
2022/06/09 03:58:45;;;;;;;1.75;0.70;;;13.30;99.90;;;;;;4994506;28;20038;-82
2022/06/09 04:01:13;;;;;;;0.65;0.55;;;13.30;99.90;;;;;;4971598;28;20547;-82
2022/06/09 04:03:42;;;;;;;0.43;0.43;;;13.30;99.90;;;;;;4965776;28;20511;-82
2022/06/09 04:06:17;;;;;;;0.90;0.43;;;13.30;99.90;;;;;;4994926;28;20369;-82
2022/06/09 04:08:44;;;;;;;2.22;0.35;;;13.30;99.90;;;;;;4992833;28;20350;-82
2022/06/09 04:11:10;;;;;;;0.65;0.38;;;13.40;99.90;;;;;;4989228;28;20127;-82
2022/06/09 04:13:37;;;;;;;0.20;0.20;;;13.30;99.90;;;;;;4987427;28;20113;-78
2022/06/09 04:16:06;;;;;;;0.35;0.35;;;13.40;99.90;;;;;;4993573;28;20038;-77
2022/06/09 04:18:32;;;;;;;0.20;0.20;;;13.40;99.90;;;;;;4994501;28;20034;-78
2022/06/09 04:20:58;;;;;;;0.65;0.65;;;13.40;99.90;;;;;;4977878;28;20086;-78
2022/06/09 04:23:25;;;;;;;0.98;0.55;;;13.40;99.90;;;;;;4987990;28;20081;-77
2022/06/09 04:25:51;;;;;;;0.10;0.10;;;13.40;99.90;;;;;;4976563;28;20128;-77
2022/06/09 04:28:18;;;;;;;0.70;0.70;;;13.40;99.90;;;;;;4994453;28;20082;-77
2022/06/09 04:30:44;;;;;;;3.10;2.08;;;13.40;99.90;;;;;;4994171;28;20407;-81
2022/06/09 04:33:10;;;;;;;0.68;0.68;;;13.40;99.90;;;;;;4961934;28;20117;-81
2022/06/09 04:35:36;;;;;;;0.45;0.38;;;13.50;99.90;;;;;;4961419;28;20118;-81
2022/06/09 04:38:01;;;;;;;0.82;0.55;;;13.50;99.90;;;;;;4993840;28;20176;-81
2022/06/09 04:40:30;;;;;;;0.13;0.13;;;13.40;99.90;;;;;;4994444;28;20049;-81
2022/06/09 04:42:56;;;;;;;0.22;0.22;;;13.50;99.90;;;;;;4994183;28;20068;-81
2022/06/09 04:45:22;;;;;;;0.98;0.75;;;13.50;99.90;;;;;;4993754;28;20046;-81
2022/06/09 04:47:48;;;;;;;0.40;0.40;;;13.50;99.90;;;;;;4977773;28;20038;-90
2022/06/09 04:50:16;;;;;;;0.15;0.13;;;13.50;99.90;;;;;;4977855;28;20057;-90
2022/06/09 04:52:42;;;;;;;1.33;0.60;;;13.50;99.90;;;;;;4994144;28;20100;-90
2022/06/09 04:55:08;;;;;;;0.47;0.47;;;13.50;99.90;;;;;;4978105;28;20078;-90
2022/06/09 04:57:34;;;;;;;0.32;0.32;;;13.60;99.90;;;;;;5000735;28;20049;-90
2022/06/09 05:00:00;;;;;;;1.35;1.33;;;13.60;99.90;;;;;;4997024;28;20045;-91
2022/06/09 05:02:27;;;;;;;0.30;0.30;;;13.60;99.90;;;;;;5012786;28;20049;-90
2022/06/09 05:04:53;;;;;;;2.05;1.08;;;13.70;99.90;;;;;;5013326;28;20129;-90
2022/06/09 05:07:19;;;;;;;0.60;0.60;;;13.70;99.90;;;;;;4996677;28;20112;-91
2022/06/09 05:09:44;;;;;;;1.35;0.95;;;13.80;99.90;;;;;;4961598;28;20042;-91
2022/06/09 05:12:10;;;;;;;2.22;1.65;;;13.90;99.90;;;;;;4977587;28;20549;-90
2022/06/09 05:14:36;;;;;;;0.85;0.75;;;13.90;99.90;;;;;;4993217;28;20041;-90
2022/06/09 05:17:02;;;;;;;7.15;0.95;;;13.90;99.90;;;;;;4961338;28;20077;-91
2022/06/09 05:19:27;;;;;;;0.63;0.57;;;14.00;99.90;;;;;;4997284;22;20100;-78
2022/06/09 05:21:53;;;;;;;0.30;0.25;;;14.00;99.90;;;;;;4957785;28;20104;-77
2022/06/09 05:24:19;;;;;;;0.38;0.30;;;14.00;99.90;;;;;;4972514;28;20092;-78
2022/06/09 05:26:44;;;;;;;0.28;0.28;;;14.10;99.90;;;;;;4949287;28;20047;-78
2022/06/09 05:29:10;;;;;;;0.10;0.10;;;14.10;99.90;;;;;;4954914;28;20039;-78
2022/06/09 05:31:37;;;;;;;0.10;0.10;;;14.10;99.90;;;;;;4973769;28;20038;-78
2022/06/09 05:34:03;;;;;;;0.35;0.35;;;14.10;99.90;;;;;;4954590;29;20056;-81
2022/06/09 05:36:29;;;;;;;0.30;0.30;;;14.20;99.90;;;;;;4972325;28;20046;-91
2022/06/09 05:47:07;;;;;;;0.35;0.35;;;14.40;99.90;;;;;;4971280;28;20047;-90
2022/06/09 05:49:32;;;;;;;0.40;0.25;;;14.40;99.90;;;;;;4960487;28;20053;-91
2022/06/09 05:51:58;;;;;;;0.65;0.40;;;14.40;99.90;;;;;;4974299;28;20043;-90
2022/06/09 05:54:24;;;;;;;0.40;0.40;;;14.80;99.90;;;;;;4973585;28;20109;-78
2022/06/09 05:56:50;;;;;;;1.08;0.98;;;15.10;99.90;;;;;;4957450;28;20046;-78
2022/06/09 05:59:16;;;;;;;0.70;0.68;;;15.60;99.90;;;;;;4973344;28;20071;-78
2022/06/09 06:01:42;;;;;;;1.70;1.23;;;16.10;99.90;;;;;;4952851;28;20055;-78
2022/06/09 06:04:09;;;;;;;1.00;0.50;;;16.50;99.90;;;;;;4980157;28;20481;-78
2022/06/09 06:06:35;;;;;;;0.20;0.20;;;16.90;99.90;;;;;;4965390;28;20445;-78
2022/06/09 06:09:03;;;;;;;0.63;0.63;;;17.40;99.90;;;;;;4957454;28;20126;-81
2022/06/09 06:11:29;;;;;;;0.40;0.30;;;18.00;99.90;;;;;;4971653;28;20043;-81
2022/06/09 06:13:55;;;;;;;0.85;0.85;;;17.90;99.90;;;;;;4974493;28;20046;-81
2022/06/09 06:16:22;;;;;;;0.10;0.10;;;18.10;99.90;;;;;;4978269;28;20038;-81
2022/06/09 06:18:49;;;;;;;0.13;0.13;;;18.10;99.90;;;;;;4974497;28;20118;-81
2022/06/09 06:21:16;;;;;;;0.22;0.22;;;18.50;99.90;;;;;;4976020;28;20059;-82
2022/06/09 06:23:42;;;;;;;0.50;0.50;;;19.00;99.90;;;;;;4960934;28;20058;-82
2022/06/09 06:26:08;;;;;;;0.00;0.00;;;19.30;99.90;;;;;;4960420;28;20058;-82
2022/06/09 06:28:34;;;;;;;0.20;0.20;;;20.00;99.90;;;;;;4959847;28;20031;-82
2022/06/09 06:31:00;;;;;;;0.57;0.57;;;20.70;99.90;;;;;;4971382;28;20401;-82
2022/06/09 06:33:27;;;;;;;0.28;0.28;;;21.50;99.90;;;;;;4959962;28;20045;-82
2022/06/09 06:35:53;;;;;;;0.38;0.38;;;22.00;99.90;;;;;;4960213;28;20046;-82
2022/06/09 06:38:19;;;;;;;0.20;0.20;;;22.60;99.90;;;;;;4976529;28;20074;-82
2022/06/09 06:40:45;;;;;;;0.15;0.15;;;;;;;;;;4976396;28;20074;-82
2022/06/09 06:43:11;;;;;;;0.10;0.10;;;23.00;99.90;;;;;;4959781;28;20066;-82
2022/06/09 06:45:37;;;;;;;0.20;0.20;;;23.10;99.90;;;;;;4976461;28;20066;-82
2022/06/09 06:48:03;;;;;;;0.20;0.20;;;23.00;99.90;;;;;;4974818;28;20113;-82
2022/06/09 06:50:29;;;;;;;0.10;0.10;;;23.20;99.90;;;;;;4974184;28;20075;-82
2022/06/09 06:52:54;;;;;;;0.10;0.10;;;23.30;99.90;;;;;;4958757;28;20436;-82
2022/06/09 06:55:22;;;;;;;0.13;0.13;;;23.80;99.90;;;;;;4973123;28;20070;-82
2022/06/09 06:57:48;;;;;;;0.35;0.35;;;24.10;99.90;;;;;;4935553;28;20059;-81
2022/06/09 07:00:21;;;;;;;0.10;0.10;;;24.00;99.90;;;;;;4959946;28;20126;-80
2022/06/09 07:02:48;;;;;;;0.57;0.57;;;24.00;99.90;;;;;;4975933;28;20058;-79
2022/06/09 07:05:15;;;;;;;0.10;0.10;;;24.70;99.90;;;;;;4975785;28;20081;-80
2022/06/09 07:07:41;;;;;;;0.10;0.10;;;24.80;99.90;;;;;;4959661;28;20053;-80
2022/06/09 07:10:08;;;;;;;0.15;0.15;;;25.00;99.90;;;;;;4976877;28;20043;-80
2022/06/09 07:12:34;;;;;;;0.30;0.30;;;25.50;99.90;;;;;;4965274;28;20535;-80
2022/06/09 07:15:00;;;;;;;0.10;0.10;;;;;;;;;;4960283;28;20485;-80
2022/06/09 07:17:26;;;;;;;0.28;0.28;;;26.40;99.90;;;;;;4959313;28;20125;-83
2022/06/09 07:19:52;;;;;;;1.27;0.50;;;26.20;99.90;;;;;;4979325;28;20105;-84
2022/06/09 07:22:19;;;;;;;0.10;0.10;;;26.50;99.90;;;;;;4976419;28;20047;-83
2022/06/09 07:24:46;;;;;;;0.30;0.30;;;26.50;99.20;;;;;;4959516;28;20047;-83
2022/06/09 07:27:12;;;;;;;0.20;0.20;;;26.80;99.90;;;;;;4974402;28;20046;-82
2022/06/09 07:29:38;;;;;;;0.10;0.10;;;27.40;99.90;;;;;;4972386;28;20073;-83
2022/06/09 07:32:05;;;;;;;0.10;0.10;;;27.70;98.80;;;;;;4959190;28;20125;-82
2022/06/09 07:34:31;;;;;;;0.43;0.43;;;28.00;99.90;;;;;;4975878;28;20090;-84
2022/06/09 07:36:57;;;;;;;0.10;0.10;;;28.30;98.80;;;;;;4975335;28;20508;-84
2022/06/09 07:39:24;;;;;;;0.10;0.10;;;28.30;99.00;;;;;;4974830;28;20125;-84
2022/06/09 07:41:50;;;;;;;0.10;0.10;;;27.70;99.90;;;;;;4975594;28;20130;-83
2022/06/09 07:44:16;;;;;;;0.20;0.20;;;27.60;99.10;;;;;;4975991;28;20046;-85
2022/06/09 07:46:42;;;;;;;0.10;0.10;;;27.80;99.30;;;;;;4959699;28;20042;-85
2022/06/09 07:49:09;;;;;;;0.05;0.05;;;28.20;99.50;;;;;;4959891;28;20039;-91
2022/06/09 07:51:35;;;;;;;0.32;0.13;;;28.60;97.80;;;;;;4976203;28;20039;-92
2022/06/09 07:54:01;;;;;;;0.15;0.15;;;28.50;96.10;;;;;;4976205;28;20101;-93
2022/06/09 07:56:28;;;;;;;0.10;0.10;;;28.90;96.10;;;;;;4976094;28;20481;-93
2022/06/09 07:58:54;;;;;;;0.57;0.57;;;29.00;96.70;;;;;;4975842;28;20130;-92
2022/06/09 08:01:22;;;;;;;0.00;0.00;;;29.20;93.70;;;;;;4975556;28;20474;-92
2022/06/09 08:03:48;;;;;;;0.10;0.10;;;29.60;96.80;;;;;;4975780;28;20054;-92
2022/06/09 08:06:14;;;;;;;0.03;0.03;;;29.60;92.30;;;;;;4959526;28;20441;-83
2022/06/09 08:08:40;;;;;;;0.10;0.10;;;29.80;94.20;;;;;;4965640;28;20038;-83
2022/06/09 08:11:07;;;;;;;0.32;0.32;;;29.10;93.60;;;;;;4968607;28;20043;-83
2022/06/09 08:13:34;;;;;;;8.68;0.45;;;29.60;93.80;;;;;;4952670;28;20485;-83
2022/06/09 08:16:01;;;;;;;0.10;0.10;;;30.00;94.40;;;;;;4970200;28;20035;-83
2022/06/09 08:18:27;;;;;;;1.00;0.40;;;30.00;92.60;;;;;;4955807;29;20121;-83
2022/06/09 08:20:53;;;;;;;0.20;0.20;;;29.30;93.10;;;;;;4949887;28;20090;-83
2022/06/09 08:23:22;;;;;;;0.10;0.10;;;28.60;94.20;;;;;;4958609;28;20469;-84
2022/06/09 08:25:50;;;;;;;0.10;0.10;;;28.80;94.30;;;;;;4972215;28;20135;-84
2022/06/09 08:28:18;;;;;;;0.20;0.20;;;28.80;95.70;;;;;;4974210;28;20085;-84
2022/06/09 08:30:48;;;;;;;1.67;0.75;;;28.10;94.00;;;;;;4958153;28;20038;-85
2022/06/09 08:33:14;;;;;;;0.40;0.40;;;28.30;93.80;;;;;;4957609;28;20096;-85
2022/06/09 08:35:40;;;;;;;0.10;0.10;;;27.40;94.70;;;;;;4975745;28;20063;-84
2022/06/09 08:38:07;;;;;;;0.10;0.10;;;27.00;95.40;;;;;;4957743;28;20094;-84
2022/06/09 08:41:03;;;;;;;0.20;0.20;;;27.50;95.90;;;;;;4974941;28;20130;-84
2022/06/09 08:44:10;;;;;;;0.13;0.13;;;28.30;97.50;;;;;;4973891;28;20489;-84
2022/06/09 08:46:57;;;;;;;0.68;0.68;;;27.20;96.30;;;;;;4964174;28;20417;-83
2022/06/09 08:49:35;;;;;;;1.25;0.40;;;26.70;95.40;;;;;;4990897;28;20050;-84
2022/06/09 08:52:41;;;;;;;0.35;0.35;;;26.60;96.40;;;;;;4970575;28;20052;-84
2022/06/09 08:55:19;;;;;;;0.28;0.28;;;26.70;96.50;;;;;;4972152;28;20078;-83
2022/06/09 08:57:45;;;;;;;0.28;0.28;;;27.40;96.80;;;;;;4956051;28;20050;-80
2022/06/09 09:00:17;;;;;;;0.17;0.17;;;28.60;97.20;;;;;;4974407;28;20038;-80
2022/06/09 09:02:51;;;;;;;0.00;0.00;;;28.00;95.40;;;;;;4952242;28;20043;-80
2022/06/09 09:05:30;;;;;;;0.20;0.20;;;27.30;95.10;;;;;;4956666;28;20070;-80
2022/06/09 09:08:00;;;;;;;0.20;0.20;;;25.00;96.10;;;;;;4964988;28;20039;-80
2022/06/09 09:10:38;;;;;;;0.10;0.10;;;24.60;96.90;;;;;;4974232;28;20057;-81
2022/06/09 09:13:15;;;;;;;0.40;0.40;;;25.60;99.00;;;;;;4967001;28;20080;-80
2022/06/09 09:16:20;;;;;;;0.20;0.20;;;26.20;98.00;;;;;;4985429;28;20078;-80
2022/06/09 09:19:00;;;;;;;0.10;0.10;;;25.40;97.60;;;;;;4960895;28;20172;-80
2022/06/09 09:21:37;;;;;;;0.10;0.10;;;25.50;96.80;;;;;;4969424;28;20062;-80
2022/06/09 09:24:20;;;;;;;0.00;0.00;;;25.10;97.80;;;;;;4969814;28;20406;-80
2022/06/09 09:27:12;;;;;;;0.10;0.10;;;25.40;97.90;;;;;;4948279;28;20050;-80
2022/06/09 09:29:57;;;;;;;0.10;0.10;;;26.00;97.50;;;;;;4957266;28;20485;-83
2022/06/09 09:32:26;;;;;;;0.10;0.10;;;27.50;96.80;;;;;;4977686;28;20034;-83
2022/06/09 09:34:55;;;;;;;0.00;0.00;;;28.10;94.60;;;;;;4952233;28;20070;-83
2022/06/09 09:37:44;;;;;;;0.20;0.20;;;28.80;94.40;;;;;;4954972;28;20041;-83
2022/06/09 09:40:12;;;;;;;2.65;0.55;;;28.40;93.80;;;;;;4971995;28;20039;-83
2022/06/09 09:42:42;;;;;;;0.10;0.10;;;28.90;92.70;;;;;;4970338;28;20050;-82
2022/06/09 09:45:11;;;;;;;0.43;0.43;;;29.40;92.90;;;;;;4965527;28;20042;-83
2022/06/09 09:47:45;;;;;;;3.63;1.15;;;29.90;93.00;;;;;;4972421;28;20121;-91
2022/06/09 09:50:34;;;;;;;0.10;0.10;;;30.40;91.90;;;;;;4974090;28;20389;-93
2022/06/09 09:53:04;;;;;;;0.10;0.10;;;30.50;90.70;;;;;;4957774;28;20039;-93
2022/06/09 09:55:35;;;;;;;0.10;0.10;;;30.50;90.20;;;;;;4974177;28;20039;-93
2022/06/09 09:58:15;;;;;;;0.03;0.03;;;29.50;90.80;;;;;;4957732;28;20050;-94
2022/06/09 10:00:42;;;;;;;0.10;0.10;;;29.30;91.60;;;;;;4979375;28;20050;-93
2022/06/09 10:08:52;;;;;;;0.10;0.10;;;29.70;91.20;;;;;;4959495;28;20058;-92
2022/06/09 10:14:21;;;;;;;0.22;0.22;;;28.50;90.70;;;;;;4989192;28;20493;-92
2022/06/09 10:16:53;;;;;;;0.20;0.20;;;29.00;91.30;;;;;;4946329;28;20038;-93
2022/06/09 10:19:22;;;;;;;0.22;0.22;;;29.50;89.50;;;;;;4972066;28;20046;-84
2022/06/09 10:21:58;;;;;;;0.10;0.10;;;28.10;90.20;;;;;;4972847;28;20047;-85
2022/06/09 10:24:49;;;;;;;0.52;0.52;;;28.40;90.80;;;;;;4970683;28;20047;-85
2022/06/09 10:27:19;;;;;;;0.32;0.32;;;27.90;91.60;;;;;;4965481;28;20034;-85
2022/06/09 10:29:48;;;;;;;0.20;0.20;;;28.70;91.60;;;;;;4956492;28;20046;-85
2022/06/09 10:32:26;;;;;;;0.98;0.50;;;29.30;90.50;;;;;;4972611;28;20042;-85
2022/06/09 10:35:01;;;;;;;0.13;0.13;;;29.80;90.40;;;;;;4972698;28;20125;-85
2022/06/09 10:37:48;;;;;;;2.42;0.35;;;30.50;90.10;;;;;;4972562;28;20042;-86
2022/06/09 10:40:37;;;;;;;0.20;0.20;;;30.50;88.00;;;;;;4954149;28;20043;-82
2022/06/09 10:43:27;;;;;;;0.45;0.45;;;31.10;88.50;;;;;;4976103;28;20070;-83
2022/06/09 10:46:09;;;;;;;0.00;0.00;;;30.70;87.00;;;;;;4970852;28;20047;-82
2022/06/09 10:55:16;;;;;;;0.10;0.10;;;29.90;82.80;;;;;;4966444;28;20082;-85
2022/06/09 10:58:00;;;;;;;0.10;0.10;;;29.90;85.70;;;;;;4972072;28;20050;-85
2022/06/09 11:00:48;;;;;;;0.10;0.10;;;30.10;84.50;;;;;;4972619;28;20121;-86
2022/06/09 11:03:31;;;;;;;0.70;0.20;;;30.00;81.60;;;;;;4972010;28;20046;-85
2022/06/09 11:06:21;;;;;;;0.20;0.20;;;29.70;82.30;;;;;;4975731;28;20047;-85
2022/06/09 11:09:12;;;;;;;0.10;0.10;;;29.40;84.90;;;;;;4976154;28;20187;-85
2022/06/09 11:11:52;;;;;;;0.10;0.10;;;29.80;83.70;;;;;;4976279;28;20047;-80
2022/06/09 11:14:39;;;;;;;0.10;0.10;;;29.50;81.30;;;;;;4968859;28;20071;-80
2022/06/09 11:17:29;;;;;;;0.00;0.00;;;28.70;83.90;;;;;;4975856;28;20043;-80
2022/06/09 11:20:19;;;;;;;0.05;0.05;;;28.90;85.70;;;;;;4996776;23;20050;-83
2022/06/09 11:22:48;;;;;;;0.10;0.10;;;28.70;82.90;;;;;;4988453;28;20058;-83
2022/06/09 11:25:31;;;;;;;0.43;0.43;;;27.80;84.90;;;;;;4963784;28;20412;-82
2022/06/09 11:28:23;;;;;;;0.08;0.08;;;25.80;86.70;;;;;;4991975;28;20473;-83
2022/06/09 11:30:57;;;;;;;0.00;0.00;;;25.80;88.60;;;;;;4984123;28;20047;-83
2022/06/09 11:33:50;;;;;;;0.10;0.10;;;25.80;90.00;;;;;;4995263;28;20042;-82
2022/06/09 11:36:39;;;;;;;0.00;0.00;;;26.90;89.60;;;;;;4994769;28;20117;-83
2022/06/09 11:39:55;;;;;;;0.10;0.10;;;28.20;87.00;;;;;;4995371;28;20073;-82
2022/06/09 11:43:00;;;;;;;0.10;0.10;;;29.00;87.20;;;;;;4994555;28;20046;-87
2022/06/09 11:45:55;;;;;;;0.13;0.13;;;29.30;84.60;;;;;;4995347;28;20515;-86
2022/06/09 11:48:40;;;;;;;0.35;0.35;;;28.10;84.10;;;;;;4978438;28;20054;-87
2022/06/09 11:51:06;;;;;;;0.43;0.43;;;27.00;84.70;;;;;;4976332;28;20053;-86
2022/06/09 11:53:39;;;;;;;0.00;0.00;;;27.10;87.30;;;;;;4974216;28;20121;-86
2022/06/09 11:56:33;;;;;;;1.52;0.85;;;27.60;85.80;;;;;;4989409;28;20042;-87
2022/06/09 11:59:01;;;;;;;2.25;0.50;;;28.00;83.60;;;;;;4990413;28;20530;-88
2022/06/09 12:01:39;;;;;;;0.10;0.10;;;28.30;83.60;;;;;;4971100;28;20034;-86
2022/06/09 12:04:28;;;;;;;1.75;0.85;;;28.30;85.40;;;;;;4978479;28;20216;-86
2022/06/09 12:07:12;;;;;;;0.13;0.13;;;28.20;84.20;;;;;;4977761;28;20034;-86
2022/06/09 12:09:52;;;;;;;0.00;0.00;;;28.00;84.00;;;;;;4989590;28;20129;-86
2022/06/09 12:12:38;;;;;;;1.90;0.68;;;27.90;87.10;;;;;;4967606;28;21380;-86
2022/06/09 12:15:22;;;;;;;;;;;27.80;84.70;;;;;;4991334;28;20046;-86
2022/06/09 12:18:02;;;;;;;0.10;0.10;;;27.90;83.90;;;;;;4991734;28;20316;-86
2022/06/09 12:20:46;;;;;;;0.15;0.15;;;27.10;84.10;;;;;;4973838;28;20197;-87
2022/06/09 12:23:24;;;;;;;0.10;0.10;;;27.00;87.40;;;;;;4969409;28;20110;-87
2022/06/09 12:26:09;;;;;;;0.17;0.17;;;27.10;85.40;;;;;;4990518;28;20464;-86
2022/06/09 12:28:50;;;;;;;0.10;0.10;;;27.50;87.00;;;;;;4989486;28;20129;-87
2022/06/09 12:31:30;;;;;;;0.10;0.10;;;27.70;84.20;;;;;;4986035;28;20050;-86
2022/06/09 12:33:57;;;;;;;0.20;0.20;;;27.90;84.40;;;;;;4994284;28;20045;-80
2022/06/09 12:36:35;;;;;;;0.08;0.08;;;27.40;82.20;;;;;;4994016;28;20039;-80
2022/06/09 12:39:05;;;;;;;0.10;0.10;;;26.20;84.20;;;;;;4993780;28;20504;-80
2022/06/09 12:41:38;;;;;;;0.25;0.25;;;24.90;85.90;;;;;;4975340;28;20130;-79
2022/06/09 12:44:24;;;;;;;0.22;0.22;;;24.50;88.90;;;;;;4975669;28;20108;-79
2022/06/09 12:46:55;;;;;;;0.05;0.05;;;24.60;88.60;;;;;;4993038;28;20049;-79
2022/06/09 12:49:26;;;;;;;0.00;0.00;;;24.80;90.30;;;;;;4977688;28;20046;-82
2022/06/09 12:51:53;;;;;;;0.10;0.10;;;25.00;90.00;;;;;;4993501;28;20608;-82
2022/06/09 12:54:34;;;;;;;0.00;0.00;;;25.60;89.60;;;;;;4993036;28;20044;-83
2022/06/09 12:57:17;;;;;;;0.10;0.10;;;26.10;88.40;;;;;;4977664;28;20038;-83
2022/06/09 12:59:43;;;;;;;0.13;0.13;;;26.60;85.00;;;;;;4990439;28;20429;-83
2022/06/09 13:02:24;;;;;;;0.00;0.00;;;26.80;84.70;;;;;;4976068;28;20048;-83
2022/06/09 13:05:01;;;;;;;0.08;0.08;;;27.10;85.10;;;;;;4993772;28;20136;-83
2022/06/09 13:07:37;;;;;;;4.10;1.55;;;26.80;83.70;;;;;;4992627;28;20034;-83
2022/06/09 13:10:21;;;;;;;0.00;0.00;;;26.40;84.20;;;;;;4977264;28;20081;-82
2022/06/09 13:12:52;;;;;;;0.00;0.00;;;25.80;83.70;;;;;;5022298;28;20101;-82
2022/06/09 13:15:37;;;;;;;0.20;0.20;;;25.90;84.60;;;;;;4977826;28;20046;-82
2022/06/09 13:18:37;;;;;;;0.10;0.10;;;26.10;83.80;;;;;;4987902;28;20137;-83
2022/06/09 13:21:11;;;;;;;0.10;0.10;;;26.30;82.90;;;;;;4977032;28;20069;-83
2022/06/09 13:23:39;;;;;;;0.30;0.30;;;26.40;82.90;;;;;;4993403;28;20037;-80
2022/06/09 13:26:06;;;;;;;0.22;0.22;;;26.30;84.00;;;;;;4993515;28;20046;-80
2022/06/09 13:28:39;;;;;;;0.00;0.00;;;26.30;84.00;;;;;;4993591;28;20091;-80
2022/06/09 13:31:31;;;;;;;0.08;0.08;;;26.50;83.60;;;;;;4976692;28;20038;-81
2022/06/09 13:34:01;;;;;;;0.08;0.08;;;26.70;83.60;;;;;;4988238;28;20046;-81
2022/06/09 13:36:37;;;;;;;0.10;0.10;;;26.70;84.50;;;;;;4975799;28;20038;-81